Time;durP1;ratioP1;P1;durP2;ratioP2;P2;SDS_P1;SDS_P2;PMS_P1;PMS_P2;Temp;Humidity;BMP_temperature;BMP_pressure;BME280_temperature;BME280_humidity;BME280_pressure;Samples;Min_cycle;Max_cycle;Signal;HPM_P1;HPM_P2
2021/06/05 00:00:38;;;;;;;21.73;19.20;;;;;;;;;;1497764;39;20461;-87
2021/06/05 00:01:44;;;;;;;20.70;18.50;;;;;;;;;;1499986;39;20393;-88
2021/06/05 00:02:46;;;;;;;22.87;20.33;;;;;;;;;;1499929;39;20473;-86
2021/06/05 00:03:49;;;;;;;22.65;20.05;;;;;;;;;;1498419;39;20421;-87
2021/06/05 00:04:57;;;;;;;21.38;19.48;;;;;;;;;;1495661;39;20410;-87
2021/06/05 00:05:59;;;;;;;22.25;19.95;;;;;;;;;;1495564;39;20391;-87
2021/06/05 00:07:01;;;;;;;22.27;19.02;;;;;;;;;;1491429;39;20413;-89
2021/06/05 00:08:04;;;;;;;22.25;19.83;;;;;;;;;;1487255;39;20478;-89
2021/06/05 00:09:07;;;;;;;24.17;21.65;;;;;;;;;;1487667;39;20403;-84
2021/06/05 00:10:12;;;;;;;24.75;22.45;;;;;;;;;;1486507;39;20748;-86
2021/06/05 00:11:16;;;;;;;25.77;22.35;;;;;;;;;;1492521;39;21191;-88
2021/06/05 00:12:21;;;;;;;23.45;21.08;;;;;;;;;;1499999;39;20412;-88
2021/06/05 00:13:33;;;;;;;24.73;22.13;;;;;;;;;;1496050;39;20394;-88
2021/06/05 00:14:34;;;;;;;23.02;20.58;;;;;;;;;;1495181;39;20768;-87
2021/06/05 00:15:40;;;;;;;24.33;21.35;;;;;;;;;;1496016;39;20380;-88
2021/06/05 00:16:48;;;;;;;24.73;22.13;;;;;;;;;;1496173;39;20506;-87
2021/06/05 00:17:50;;;;;;;23.35;21.00;;;;;;;;;;1499070;39;20462;-88
2021/06/05 00:18:53;;;;;;;25.17;22.50;;;;;;;;;;1486872;40;20637;-87
2021/06/05 00:19:55;;;;;;;24.92;22.45;;;;;;;;;;1483194;39;20460;-86
2021/06/05 00:20:57;;;;;;;25.48;22.17;;;;;;;;;;1482993;40;20912;-88
2021/06/05 00:21:58;;;;;;;26.23;23.63;;;;;;;;;;1487121;39;20440;-88
2021/06/05 00:23:02;;;;;;;24.77;22.48;;;;;;;;;;1491578;39;20540;-87
2021/06/05 00:24:05;;;;;;;25.80;23.30;;;;;;;;;;1489749;39;20437;-87
2021/06/05 00:25:11;;;;;;;27.77;25.08;;;;;;;;;;1482607;39;20409;-86
2021/06/05 00:26:14;;;;;;;26.88;24.15;;;;;;;;;;1487647;39;20380;-87
2021/06/05 00:27:18;;;;;;;27.90;25.08;;;;;;;;;;1495609;39;20465;-88
2021/06/05 00:28:21;;;;;;;26.70;23.95;;;;;;;;;;1496104;39;20435;-87
2021/06/05 00:29:23;;;;;;;27.83;25.02;;;;;;;;;;1497065;39;20418;-88
2021/06/05 00:30:26;;;;;;;29.83;26.77;;;;;;;;;;1496716;39;20474;-86
2021/06/05 00:31:28;;;;;;;29.02;25.30;;;;;;;;;;1499711;39;20413;-88
2021/06/05 00:32:30;;;;;;;29.35;26.08;;;;;;;;;;1495636;39;20415;-88
2021/06/05 00:33:33;;;;;;;31.20;28.00;;;;;;;;;;1486868;39;20532;-88
2021/06/05 00:34:35;;;;;;;28.98;26.00;;;;;;;;;;1485359;39;20409;-87
2021/06/05 00:35:37;;;;;;;30.98;26.90;;;;;;;;;;1486989;39;20409;-88
2021/06/05 00:36:39;;;;;;;30.83;27.25;;;;;;;;;;1488586;39;20429;-88
2021/06/05 00:37:41;;;;;;;30.10;26.77;;;;;;;;;;1490831;39;20392;-87
2021/06/05 00:38:42;;;;;;;29.35;26.23;;;;;;;;;;1482728;40;20423;-87
2021/06/05 00:39:44;;;;;;;29.30;26.02;;;;;;;;;;1483138;39;21108;-88
2021/06/05 00:40:53;;;;;;;31.15;26.25;;;;;;;;;;1487337;39;20446;-87
2021/06/05 00:41:55;;;;;;;27.92;25.00;;;;;;;;;;1494037;39;20540;-86
2021/06/05 00:42:58;;;;;;;30.10;26.73;;;;;;;;;;1498601;39;20393;-87
2021/06/05 00:44:05;;;;;;;30.88;27.63;;;;;;;;;;1496105;39;20397;-87
2021/06/05 00:45:09;;;;;;;28.40;25.15;;;;;;;;;;1495867;39;20375;-86
2021/06/05 00:46:13;;;;;;;27.23;24.30;;;;;;;;;;1490815;39;20797;-87
2021/06/05 00:47:15;;;;;;;27.95;24.92;;;;;;;;;;1491360;39;20445;-87
2021/06/05 00:48:18;;;;;;;27.73;24.67;;;;;;;;;;1493106;39;20476;-86
2021/06/05 00:49:20;;;;;;;31.27;26.40;;;;;;;;;;1487230;39;20422;-88
2021/06/05 00:50:23;;;;;;;29.95;24.75;;;;;;;;;;1490707;39;20417;-87
2021/06/05 00:51:36;;;;;;;28.30;25.15;;;;;;;;;;1482884;40;20504;-87
2021/06/05 00:52:39;;;;;;;29.08;25.25;;;;;;;;;;1488974;39;20448;-87
2021/06/05 00:53:40;;;;;;;28.40;25.40;;;;;;;;;;1496641;39;20403;-87
2021/06/05 00:54:44;;;;;;;28.88;24.63;;;;;;;;;;1493908;39;20809;-86
2021/06/05 00:55:49;;;;;;;29.17;25.55;;;;;;;;;;1489559;39;20391;-87
2021/06/05 00:56:52;;;;;;;28.65;25.58;;;;;;;;;;1494898;39;20416;-88
2021/06/05 00:57:54;;;;;;;29.98;26.83;;;;;;;;;;1496729;39;20991;-86
2021/06/05 00:58:56;;;;;;;29.83;26.73;;;;;;;;;;1500130;39;20429;-87
2021/06/05 00:59:57;;;;;;;32.30;27.15;;;;;;;;;;1502551;39;20421;-87
2021/06/05 01:01:17;;;;;;;32.28;28.33;;;;;;;;;;1497915;39;20411;-89
2021/06/05 01:02:19;;;;;;;34.00;29.83;;;;;;;;;;1496092;39;20382;-88
2021/06/05 01:03:22;;;;;;;31.67;28.20;;;;;;;;;;1494831;39;20401;-88
2021/06/05 01:04:24;;;;;;;32.23;28.17;;;;;;;;;;1499543;39;20530;-86
2021/06/05 01:05:25;;;;;;;32.42;29.02;;;;;;;;;;1504693;39;20402;-86
2021/06/05 01:06:36;;;;;;;37.53;30.87;;;;;;;;;;1497497;39;20605;-89
2021/06/05 01:07:40;;;;;;;32.33;28.92;;;;;;;;;;1500539;39;20518;-86
2021/06/05 01:09:19;;;;;;;33.15;29.00;;;;;;;;;;1504912;39;20414;-87
2021/06/05 01:10:28;;;;;;;33.42;29.65;;;;;;;;;;1499389;39;20396;-88
2021/06/05 01:12:06;;;;;;;33.60;29.17;;;;;;;;;;1495585;39;20855;-88
2021/06/05 01:13:27;;;;;;;34.42;30.65;;;;;;;;;;1500226;39;20408;-87
2021/06/05 01:14:44;;;;;;;33.80;30.25;;;;;;;;;;1499626;39;20558;-88
2021/06/05 01:15:51;;;;;;;35.92;30.48;;;;;;;;;;1493620;39;20474;-88
2021/06/05 01:16:57;;;;;;;36.80;31.20;;;;;;;;;;1496598;39;20468;-88
2021/06/05 01:18:07;;;;;;;35.10;30.65;;;;;;;;;;1494065;39;20467;-87
2021/06/05 01:19:16;;;;;;;34.88;29.48;;;;;;;;;;1497240;39;20409;-86
2021/06/05 01:20:53;;;;;;;36.15;30.88;;;;;;;;;;1500931;39;20420;-88
2021/06/05 01:22:21;;;;;;;35.45;30.40;;;;;;;;;;1498383;39;20443;-87
2021/06/05 01:23:33;;;;;;;38.60;31.40;;;;;;;;;;1502501;39;20410;-87
2021/06/05 01:24:44;;;;;;;37.88;33.08;;;;;;;;;;1504686;39;20382;-87
2021/06/05 01:26:16;;;;;;;35.83;31.33;;;;;;;;;;1499034;39;20515;-87
2021/06/05 01:27:34;;;;;;;34.73;31.03;;;;;;;;;;1492789;39;20428;-86
2021/06/05 01:29:09;;;;;;;35.97;32.08;;;;;;;;;;1494771;39;20423;-90
2021/06/05 01:30:37;;;;;;;37.90;31.17;;;;;;;;;;1492343;39;20447;-87
2021/06/05 01:31:44;;;;;;;40.03;32.42;;;;;;;;;;1490680;39;20395;-88
2021/06/05 01:32:47;;;;;;;38.38;31.95;;;;;;;;;;1495690;39;20440;-90
2021/06/05 01:33:50;;;;;;;36.13;29.88;;;;;;;;;;1492501;39;20948;-89
2021/06/05 01:34:56;;;;;;;36.75;31.83;;;;;;;;;;1490596;39;20515;-89
2021/06/05 01:35:59;;;;;;;34.22;30.60;;;;;;;;;;1495991;39;20767;-89
2021/06/05 01:37:01;;;;;;;37.05;31.02;;;;;;;;;;1495323;39;20412;-89
2021/06/05 01:38:05;;;;;;;34.78;30.38;;;;;;;;;;1495691;39;20414;-89
2021/06/05 01:39:07;;;;;;;36.35;30.73;;;;;;;;;;1491175;39;20642;-88
2021/06/05 01:40:13;;;;;;;36.58;29.92;;;;;;;;;;1486960;39;20438;-88
2021/06/05 01:41:17;;;;;;;31.55;28.25;;;;;;;;;;1487596;39;20406;-88
2021/06/05 01:42:27;;;;;;;32.78;29.27;;;;;;;;;;1494212;39;20392;-89
2021/06/05 01:43:29;;;;;;;30.98;27.63;;;;;;;;;;1495819;39;20383;-89
2021/06/05 01:44:32;;;;;;;31.75;28.20;;;;;;;;;;1491788;39;20493;-89
2021/06/05 01:45:38;;;;;;;30.88;27.70;;;;;;;;;;1491355;39;20405;-88
2021/06/05 01:46:43;;;;;;;32.17;27.80;;;;;;;;;;1492286;39;20475;-89
2021/06/05 01:47:46;;;;;;;29.48;26.35;;;;;;;;;;1496230;39;20403;-89
2021/06/05 01:48:47;;;;;;;31.58;28.17;;;;;;;;;;1490813;39;20508;-88
2021/06/05 01:49:49;;;;;;;29.80;26.55;;;;;;;;;;1487299;39;20410;-88
2021/06/05 01:50:52;;;;;;;33.30;27.40;;;;;;;;;;1485766;40;20422;-89
2021/06/05 01:51:58;;;;;;;29.98;26.33;;;;;;;;;;1486785;39;20507;-89
2021/06/05 01:53:19;;;;;;;29.23;26.13;;;;;;;;;;1492049;39;20401;-88
2021/06/05 01:54:44;;;;;;;27.50;24.73;;;;;;;;;;1491119;39;20693;-88
2021/06/05 01:56:20;;;;;;;26.63;23.88;;;;;;;;;;1493868;39;20496;-88
2021/06/05 01:57:24;;;;;;;25.30;22.60;;;;;;;;;;1491338;39;20746;-87
2021/06/05 01:58:30;;;;;;;26.00;23.13;;;;;;;;;;1494611;39;20435;-88
2021/06/05 01:59:32;;;;;;;24.10;21.65;;;;;;;;;;1495413;39;20455;-87
2021/06/05 02:00:37;;;;;;;23.02;20.48;;;;;;;;;;1491411;39;20412;-87
2021/06/05 02:01:39;;;;;;;22.98;20.15;;;;;;;;;;1495412;39;20447;-88
2021/06/05 02:02:42;;;;;;;21.27;18.83;;;;;;;;;;1491397;39;20385;-88
2021/06/05 02:03:43;;;;;;;22.90;17.83;;;;;;;;;;1490916;39;20401;-90
2021/06/05 02:04:45;;;;;;;19.60;17.50;;;;;;;;;;1491560;39;20439;-88
2021/06/05 02:05:50;;;;;;;19.48;16.85;;;;;;;;;;1491598;39;20401;-88
2021/06/05 02:06:52;;;;;;;17.35;15.40;;;;;;;;;;1491409;39;20401;-88
2021/06/05 02:07:54;;;;;;;17.45;14.90;;;;;;;;;;1487748;40;20582;-87
2021/06/05 02:08:57;;;;;;;18.55;16.58;;;;;;;;;;1490400;39;20494;-87
2021/06/05 02:09:59;;;;;;;17.13;15.27;;;;;;;;;;1496378;39;20453;-85
2021/06/05 02:11:07;;;;;;;15.98;14.48;;;;;;;;;;1492165;40;20398;-87
2021/06/05 02:12:20;;;;;;;16.70;14.73;;;;;;;;;;1491150;39;20412;-86
2021/06/05 02:13:30;;;;;;;16.45;14.55;;;;;;;;;;1493091;39;20387;-87
2021/06/05 02:14:37;;;;;;;17.15;15.43;;;;;;;;;;1500469;39;20509;-86
2021/06/05 02:15:48;;;;;;;16.27;14.43;;;;;;;;;;1500684;39;20456;-84
2021/06/05 02:16:52;;;;;;;15.27;13.77;;;;;;;;;;1498407;39;20898;-90
2021/06/05 02:17:57;;;;;;;14.57;13.07;;;;;;;;;;1499121;39;20403;-88
2021/06/05 02:19:10;;;;;;;15.25;13.75;;;;;;;;;;1500363;39;20392;-86
2021/06/05 02:20:20;;;;;;;13.98;12.57;;;;;;;;;;1500833;39;20416;-86
2021/06/05 02:21:24;;;;;;;14.40;12.65;;;;;;;;;;1497531;39;20393;-86
2021/06/05 02:22:30;;;;;;;14.32;12.82;;;;;;;;;;1501113;39;20411;-85
2021/06/05 02:23:44;;;;;;;14.00;12.57;;;;;;;;;;1501304;39;20529;-85
2021/06/05 02:24:50;;;;;;;13.60;12.30;;;;;;;;;;1501512;39;20387;-86
2021/06/05 02:25:54;;;;;;;12.75;11.45;;;;;;;;;;1501588;39;20394;-88
2021/06/05 02:26:58;;;;;;;12.48;11.35;;;;;;;;;;1501141;39;20392;-87
2021/06/05 02:28:03;;;;;;;13.30;11.65;;;;;;;;;;1498950;39;20792;-91
2021/06/05 02:29:08;;;;;;;13.13;11.73;;;;;;;;;;1496375;39;20782;-90
2021/06/05 02:30:15;;;;;;;12.70;11.32;;;;;;;;;;1496316;39;20445;-90
2021/06/05 02:31:16;;;;;;;12.10;10.90;;;;;;;;;;1495890;39;20453;-89
2021/06/05 02:32:20;;;;;;;11.75;10.63;;;;;;;;;;1495369;39;20398;-89
2021/06/05 02:33:23;;;;;;;12.25;11.05;;;;;;;;;;1496074;39;20439;-89
2021/06/05 02:34:29;;;;;;;11.90;10.68;;;;;;;;;;1495728;39;20443;-87
2021/06/05 02:35:37;;;;;;;11.27;10.27;;;;;;;;;;1495981;39;20392;-89
2021/06/05 02:36:40;;;;;;;11.90;10.68;;;;;;;;;;1496314;39;20419;-88
2021/06/05 02:37:47;;;;;;;13.23;10.20;;;;;;;;;;1495734;39;20863;-91
2021/06/05 02:38:50;;;;;;;11.32;10.32;;;;;;;;;;1492149;39;20389;-89
2021/06/05 02:39:58;;;;;;;12.77;10.45;;;;;;;;;;1495698;39;21131;-89
2021/06/05 02:41:03;;;;;;;10.80;9.73;;;;;;;;;;1495733;39;20392;-89
2021/06/05 02:42:10;;;;;;;11.27;9.90;;;;;;;;;;1491009;39;20448;-88
2021/06/05 02:43:22;;;;;;;11.88;10.68;;;;;;;;;;1495428;39;20392;-88
2021/06/05 02:44:28;;;;;;;11.50;10.50;;;;;;;;;;1495343;39;20786;-90
2021/06/05 02:45:39;;;;;;;10.75;9.85;;;;;;;;;;1492098;39;20415;-89
2021/06/05 02:46:43;;;;;;;11.30;10.18;;;;;;;;;;1495743;39;20455;-89
2021/06/05 02:47:58;;;;;;;13.25;11.57;;;;;;;;;;1495511;39;20782;-88
2021/06/05 02:49:04;;;;;;;11.68;10.50;;;;;;;;;;1496067;39;20388;-89
2021/06/05 02:50:09;;;;;;;11.68;10.57;;;;;;;;;;1495882;39;20395;-87
2021/06/05 02:51:11;;;;;;;11.25;10.27;;;;;;;;;;1495271;39;20391;-87
2021/06/05 02:52:31;;;;;;;12.05;10.95;;;;;;;;;;1495426;39;20831;-88
2021/06/05 02:53:33;;;;;;;11.55;10.45;;;;;;;;;;1491450;39;20455;-89
2021/06/05 02:54:39;;;;;;;11.10;10.10;;;;;;;;;;1495075;39;20810;-88
2021/06/05 02:55:41;;;;;;;11.15;10.15;;;;;;;;;;1494962;39;20391;-89
2021/06/05 02:56:45;;;;;;;12.05;10.73;;;;;;;;;;1491312;39;20389;-87
2021/06/05 02:57:48;;;;;;;10.82;9.82;;;;;;;;;;1490353;39;20449;-85
2021/06/05 02:58:54;;;;;;;12.48;9.98;;;;;;;;;;1495034;39;20396;-88
2021/06/05 02:59:56;;;;;;;10.90;9.98;;;;;;;;;;1495259;39;20482;-85
2021/06/05 03:00:58;;;;;;;10.60;9.60;;;;;;;;;;1491293;39;20767;-86
2021/06/05 03:02:01;;;;;;;12.25;10.90;;;;;;;;;;1494896;39;20406;-86
2021/06/05 03:03:05;;;;;;;11.93;10.75;;;;;;;;;;1490901;39;20413;-89
2021/06/05 03:04:07;;;;;;;12.23;11.02;;;;;;;;;;1487522;39;20403;-88
2021/06/05 03:05:10;;;;;;;11.65;10.65;;;;;;;;;;1491291;39;20413;-86
2021/06/05 03:06:12;;;;;;;11.90;10.70;;;;;;;;;;1490329;39;20448;-84
2021/06/05 03:07:15;;;;;;;11.93;10.88;;;;;;;;;;1495843;39;20462;-85
2021/06/05 03:08:22;;;;;;;12.27;11.05;;;;;;;;;;1491015;39;20401;-84
2021/06/05 03:09:23;;;;;;;12.73;11.48;;;;;;;;;;1490903;39;20412;-88
2021/06/05 03:10:28;;;;;;;12.35;11.10;;;;;;;;;;1494778;39;20455;-87
2021/06/05 03:11:29;;;;;;;13.20;11.90;;;;;;;;;;1494702;39;20784;-88
2021/06/05 03:12:32;;;;;;;12.80;11.43;;;;;;;;;;1491047;39;20425;-89
2021/06/05 03:13:33;;;;;;;13.02;11.27;;;;;;;;;;1491202;39;20493;-86
2021/06/05 03:14:36;;;;;;;13.10;11.77;;;;;;;;;;1486698;40;20512;-87
2021/06/05 03:15:42;;;;;;;12.63;11.45;;;;;;;;;;1484043;39;20463;-87
2021/06/05 03:16:44;;;;;;;12.93;11.73;;;;;;;;;;1494405;39;20693;-90
2021/06/05 03:17:46;;;;;;;12.73;11.52;;;;;;;;;;1497987;39;20449;-88
2021/06/05 03:18:47;;;;;;;11.95;10.93;;;;;;;;;;1494895;39;20401;-87
2021/06/05 03:19:49;;;;;;;12.50;11.20;;;;;;;;;;1491655;39;20417;-87
2021/06/05 03:20:53;;;;;;;12.38;10.65;;;;;;;;;;1491987;39;20422;-87
2021/06/05 03:21:55;;;;;;;13.00;11.52;;;;;;;;;;1487692;39;20422;-86
2021/06/05 03:22:57;;;;;;;11.90;10.70;;;;;;;;;;1487954;39;20403;-88
2021/06/05 03:24:00;;;;;;;12.15;11.05;;;;;;;;;;1487478;39;20477;-86
2021/06/05 03:25:02;;;;;;;12.23;11.13;;;;;;;;;;1491702;39;20467;-88
2021/06/05 03:26:06;;;;;;;11.70;10.70;;;;;;;;;;1492228;39;20670;-87
2021/06/05 03:27:07;;;;;;;10.90;9.80;;;;;;;;;;1492990;39;20388;-86
2021/06/05 03:28:09;;;;;;;11.07;9.95;;;;;;;;;;1491501;39;20433;-89
2021/06/05 03:29:11;;;;;;;11.57;10.43;;;;;;;;;;1488845;39;20782;-87
2021/06/05 03:30:12;;;;;;;11.15;10.02;;;;;;;;;;1486809;40;20464;-85
2021/06/05 03:31:19;;;;;;;10.98;10.00;;;;;;;;;;1487055;39;20395;-86
2021/06/05 03:32:20;;;;;;;10.98;10.00;;;;;;;;;;1495415;39;20384;-88
2021/06/05 03:33:23;;;;;;;11.77;9.90;;;;;;;;;;1490505;39;20513;-88
2021/06/05 03:34:28;;;;;;;10.52;9.63;;;;;;;;;;1482560;39;20419;-87
2021/06/05 03:35:29;;;;;;;9.57;8.77;;;;;;;;;;1487744;39;20422;-87
2021/06/05 03:36:31;;;;;;;9.45;8.60;;;;;;;;;;1491394;39;20437;-89
2021/06/05 03:37:33;;;;;;;9.32;8.52;;;;;;;;;;1491382;39;20931;-88
2021/06/05 03:38:35;;;;;;;9.55;8.80;;;;;;;;;;1486995;39;20415;-87
2021/06/05 03:39:38;;;;;;;10.32;8.65;;;;;;;;;;1487059;39;20407;-88
2021/06/05 03:40:39;;;;;;;9.90;8.90;;;;;;;;;;1487081;39;20517;-87
2021/06/05 03:41:43;;;;;;;9.45;8.65;;;;;;;;;;1487107;39;20484;-88
2021/06/05 03:42:45;;;;;;;9.77;8.88;;;;;;;;;;1484872;40;20818;-86
2021/06/05 03:43:48;;;;;;;9.35;8.57;;;;;;;;;;1486066;39;20403;-86
2021/06/05 03:44:50;;;;;;;9.00;8.20;;;;;;;;;;1490889;39;20413;-87
2021/06/05 03:45:52;;;;;;;7.88;7.15;;;;;;;;;;1491084;39;20401;-87
2021/06/05 03:46:54;;;;;;;8.50;7.82;;;;;;;;;;1495514;39;20415;-87
2021/06/05 03:47:56;;;;;;;8.40;7.60;;;;;;;;;;1491547;39;20429;-87
2021/06/05 03:48:58;;;;;;;8.35;7.65;;;;;;;;;;1483041;39;20514;-88
2021/06/05 03:50:00;;;;;;;8.90;7.93;;;;;;;;;;1483306;40;20417;-88
2021/06/05 03:51:02;;;;;;;8.32;7.50;;;;;;;;;;1483531;39;20527;-87
2021/06/05 03:52:04;;;;;;;8.50;7.63;;;;;;;;;;1488400;39;20537;-88
2021/06/05 03:53:05;;;;;;;8.23;7.43;;;;;;;;;;1491524;39;20408;-88
2021/06/05 03:54:07;;;;;;;8.75;7.47;;;;;;;;;;1495076;39;20727;-85
2021/06/05 03:55:12;;;;;;;7.50;6.80;;;;;;;;;;1495130;39;20833;-90
2021/06/05 03:56:14;;;;;;;8.20;7.40;;;;;;;;;;1491220;39;20767;-88
2021/06/05 03:57:16;;;;;;;8.98;7.72;;;;;;;;;;1489669;39;20405;-87
2021/06/05 03:58:24;;;;;;;9.18;7.93;;;;;;;;;;1495211;39;20500;-90
2021/06/05 03:59:26;;;;;;;9.20;8.43;;;;;;;;;;1489645;39;20415;-88
2021/06/05 04:00:39;;;;;;;9.02;8.23;;;;;;;;;;1495248;39;20411;-91
2021/06/05 04:01:41;;;;;;;9.27;8.32;;;;;;;;;;1491842;39;20393;-90
2021/06/05 04:02:43;;;;;;;8.95;8.10;;;;;;;;;;1488032;39;20403;-90
2021/06/05 04:03:46;;;;;;;8.85;8.02;;;;;;;;;;1495458;39;20627;-88
2021/06/05 04:04:47;;;;;;;8.73;7.82;;;;;;;;;;1496362;39;20509;-85
2021/06/05 04:05:49;;;;;;;8.82;8.02;;;;;;;;;;1495687;39;20384;-87
2021/06/05 04:06:51;;;;;;;8.82;8.02;;;;;;;;;;1496557;39;20395;-89
2021/06/05 04:07:55;;;;;;;9.90;9.07;;;;;;;;;;1495671;39;20388;-89
2021/06/05 04:09:00;;;;;;;11.05;10.05;;;;;;;;;;1487500;39;20431;-88
2021/06/05 04:10:05;;;;;;;12.53;11.23;;;;;;;;;;1487421;39;20575;-87
2021/06/05 04:11:09;;;;;;;11.63;10.50;;;;;;;;;;1493720;39;20788;-90
2021/06/05 04:12:11;;;;;;;12.13;10.93;;;;;;;;;;1493819;39;20440;-89
2021/06/05 04:13:13;;;;;;;12.27;11.18;;;;;;;;;;1492106;39;20658;-86
2021/06/05 04:14:15;;;;;;;12.38;10.80;;;;;;;;;;1494771;39;20403;-86
2021/06/05 04:15:19;;;;;;;12.10;11.00;;;;;;;;;;1493134;39;20398;-86
2021/06/05 04:16:23;;;;;;;16.42;11.85;;;;;;;;;;1491651;39;20412;-88
2021/06/05 04:17:25;;;;;;;12.57;11.27;;;;;;;;;;1492056;39;20409;-90
2021/06/05 04:18:30;;;;;;;12.45;11.35;;;;;;;;;;1490488;39;20393;-87
2021/06/05 04:19:32;;;;;;;12.48;11.30;;;;;;;;;;1491214;39;20924;-90
2021/06/05 04:20:36;;;;;;;11.10;10.10;;;;;;;;;;1491626;39;20937;-90
2021/06/05 04:21:38;;;;;;;13.95;10.80;;;;;;;;;;1491473;39;20425;-85
2021/06/05 04:22:39;;;;;;;13.05;11.68;;;;;;;;;;1487794;39;20391;-88
2021/06/05 04:23:41;;;;;;;11.57;10.50;;;;;;;;;;1491957;39;20806;-88
2021/06/05 04:24:43;;;;;;;10.65;9.55;;;;;;;;;;1495606;39;20883;-86
2021/06/05 04:25:46;;;;;;;10.82;9.65;;;;;;;;;;1491595;39;20413;-85
2021/06/05 04:26:47;;;;;;;10.47;9.37;;;;;;;;;;1494892;39;20531;-88
2021/06/05 04:27:49;;;;;;;11.77;10.13;;;;;;;;;;1495056;39;20421;-87
2021/06/05 04:28:51;;;;;;;10.90;9.90;;;;;;;;;;1496570;39;20824;-89
2021/06/05 04:29:52;;;;;;;11.80;10.35;;;;;;;;;;1495849;39;20789;-86
2021/06/05 04:30:55;;;;;;;10.38;9.40;;;;;;;;;;1495254;39;20463;-87
2021/06/05 04:31:57;;;;;;;11.95;10.73;;;;;;;;;;1496174;39;20403;-89
2021/06/05 04:32:59;;;;;;;12.43;11.27;;;;;;;;;;1497158;39;20396;-89
2021/06/05 04:34:01;;;;;;;12.60;11.40;;;;;;;;;;1495062;39;20470;-89
2021/06/05 04:35:06;;;;;;;12.05;10.95;;;;;;;;;;1487825;39;20414;-87
2021/06/05 04:36:12;;;;;;;11.73;10.55;;;;;;;;;;1486770;39;20442;-87
2021/06/05 04:37:14;;;;;;;12.63;11.55;;;;;;;;;;1492554;39;20406;-86
2021/06/05 04:38:17;;;;;;;11.93;10.73;;;;;;;;;;1488774;40;20815;-87
2021/06/05 04:39:21;;;;;;;12.20;11.20;;;;;;;;;;1490557;39;20462;-86
2021/06/05 04:40:25;;;;;;;12.27;11.20;;;;;;;;;;1499897;39;20777;-88
2021/06/05 04:41:26;;;;;;;11.63;10.55;;;;;;;;;;1499300;39;20394;-88
2021/06/05 04:42:28;;;;;;;11.43;10.52;;;;;;;;;;1496854;39;20381;-87
2021/06/05 04:43:30;;;;;;;11.57;10.55;;;;;;;;;;1496189;39;20398;-86
2021/06/05 04:44:31;;;;;;;11.95;10.85;;;;;;;;;;1490925;39;20411;-90
2021/06/05 04:45:34;;;;;;;12.07;11.07;;;;;;;;;;1489966;39;21035;-87
2021/06/05 04:46:36;;;;;;;12.57;11.50;;;;;;;;;;1498514;39;20400;-88
2021/06/05 04:47:37;;;;;;;11.65;10.63;;;;;;;;;;1497572;39;20407;-89
2021/06/05 04:48:40;;;;;;;11.43;10.43;;;;;;;;;;1496457;39;20516;-88
2021/06/05 04:49:42;;;;;;;11.27;10.07;;;;;;;;;;1491192;39;20413;-88
2021/06/05 04:50:45;;;;;;;10.45;9.60;;;;;;;;;;1483153;40;20408;-86
2021/06/05 04:51:47;;;;;;;10.70;9.63;;;;;;;;;;1487675;39;20455;-87
2021/06/05 04:52:49;;;;;;;10.75;9.77;;;;;;;;;;1496922;39;20408;-88
2021/06/05 04:53:50;;;;;;;10.60;9.80;;;;;;;;;;1494302;39;20487;-88
2021/06/05 04:54:52;;;;;;;11.05;10.05;;;;;;;;;;1490827;39;20403;-88
2021/06/05 04:55:55;;;;;;;10.90;9.98;;;;;;;;;;1495673;39;20790;-85
2021/06/05 04:56:57;;;;;;;10.80;9.82;;;;;;;;;;1501330;39;20412;-88
2021/06/05 04:57:59;;;;;;;12.00;10.32;;;;;;;;;;1496724;39;20413;-88
2021/06/05 04:59:01;;;;;;;10.93;10.02;;;;;;;;;;1498761;39;20439;-91
2021/06/05 05:00:07;;;;;;;11.00;9.95;;;;;;;;;;1500670;39;20435;-89
2021/06/05 05:01:09;;;;;;;11.10;9.98;;;;;;;;;;1501993;39;20403;-86
2021/06/05 05:02:11;;;;;;;10.13;9.23;;;;;;;;;;1494831;39;20397;-89
2021/06/05 05:03:14;;;;;;;10.73;9.82;;;;;;;;;;1483952;39;20421;-89
2021/06/05 05:04:16;;;;;;;10.50;9.60;;;;;;;;;;1491888;39;20818;-84
2021/06/05 05:05:19;;;;;;;10.75;9.85;;;;;;;;;;1491663;39;20405;-85
2021/06/05 05:06:20;;;;;;;10.88;9.70;;;;;;;;;;1487697;39;20415;-88
2021/06/05 05:07:25;;;;;;;9.60;8.75;;;;;;;;;;1480262;40;20453;-88
2021/06/05 05:08:28;;;;;;;9.13;8.43;;;;;;;;;;1484361;39;20409;-90
2021/06/05 05:09:30;;;;;;;8.65;7.85;;;;;;;;;;1487518;39;20473;-86
2021/06/05 05:10:35;;;;;;;8.50;7.80;;;;;;;;;;1486903;39;20399;-86
2021/06/05 05:11:38;;;;;;;8.57;7.55;;;;;;;;;;1496686;39;20404;-87
2021/06/05 05:12:39;;;;;;;7.80;7.20;;;;;;;;;;1491392;39;20429;-88
2021/06/05 05:13:41;;;;;;;6.93;6.32;;;;;;;;;;1489023;39;20421;-87
2021/06/05 05:14:43;;;;;;;6.53;5.95;;;;;;;;;;1491498;39;20771;-88
2021/06/05 05:15:45;;;;;;;6.38;5.90;;;;;;;;;;1492187;39;20405;-87
2021/06/05 05:16:46;;;;;;;5.30;4.93;;;;;;;;;;1482824;40;20432;-88
2021/06/05 05:17:48;;;;;;;5.05;4.60;;;;;;;;;;1487269;39;20395;-87
2021/06/05 05:18:53;;;;;;;5.40;4.88;;;;;;;;;;1491402;39;20490;-87
2021/06/05 05:19:54;;;;;;;6.30;4.40;;;;;;;;;;1500074;39;20497;-86
2021/06/05 05:20:56;;;;;;;4.55;4.20;;;;;;;;;;1495045;39;20416;-89
2021/06/05 05:21:59;;;;;;;4.72;4.40;;;;;;;;;;1490725;39;20412;-87
2021/06/05 05:23:02;;;;;;;4.20;3.90;;;;;;;;;;1486491;40;20477;-88
2021/06/05 05:24:04;;;;;;;4.25;4.05;;;;;;;;;;1483514;39;20797;-88
2021/06/05 05:25:07;;;;;;;4.40;4.10;;;;;;;;;;1491740;39;20476;-91
2021/06/05 05:26:11;;;;;;;3.85;3.60;;;;;;;;;;1492027;39;20455;-88
2021/06/05 05:27:13;;;;;;;4.32;3.80;;;;;;;;;;1491682;39;20452;-87
2021/06/05 05:28:16;;;;;;;3.65;3.45;;;;;;;;;;1495996;39;20421;-86
2021/06/05 05:29:18;;;;;;;3.75;3.45;;;;;;;;;;1497434;39;20659;-88
2021/06/05 05:30:26;;;;;;;7.13;4.22;;;;;;;;;;1490844;39;20483;-88
2021/06/05 05:31:28;;;;;;;3.47;3.28;;;;;;;;;;1492142;39;20775;-87
2021/06/05 05:32:30;;;;;;;4.65;3.88;;;;;;;;;;1491677;39;20401;-85
2021/06/05 05:33:37;;;;;;;3.90;3.63;;;;;;;;;;1487350;39;20624;-87
2021/06/05 05:34:39;;;;;;;4.00;3.70;;;;;;;;;;1489703;39;20447;-87
2021/06/05 05:35:41;;;;;;;3.90;3.60;;;;;;;;;;1489640;39;20409;-89
2021/06/05 05:36:43;;;;;;;3.92;3.63;;;;;;;;;;1496552;39;20379;-87
2021/06/05 05:37:44;;;;;;;3.78;3.40;;;;;;;;;;1494137;39;20414;-86
2021/06/05 05:38:46;;;;;;;4.20;3.60;;;;;;;;;;1495888;39;20397;-87
2021/06/05 05:39:47;;;;;;;3.67;3.35;;;;;;;;;;1495846;39;20413;-86
2021/06/05 05:40:50;;;;;;;4.18;3.88;;;;;;;;;;1495520;39;20498;-85
2021/06/05 05:41:53;;;;;;;3.63;3.30;;;;;;;;;;1493029;39;20417;-87
2021/06/05 05:42:55;;;;;;;5.15;3.38;;;;;;;;;;1491621;39;20674;-89
2021/06/05 05:43:59;;;;;;;3.58;3.22;;;;;;;;;;1491516;39;20413;-86
2021/06/05 05:45:01;;;;;;;4.80;3.58;;;;;;;;;;1495951;39;20491;-86
2021/06/05 05:46:05;;;;;;;3.97;3.63;;;;;;;;;;1494886;39;20451;-87
2021/06/05 05:47:08;;;;;;;5.00;3.55;;;;;;;;;;1496155;39;20887;-87
2021/06/05 05:48:12;;;;;;;3.35;3.05;;;;;;;;;;1492401;39;20392;-88
2021/06/05 05:49:14;;;;;;;3.75;3.42;;;;;;;;;;1491506;39;20490;-87
2021/06/05 05:50:18;;;;;;;4.30;3.47;;;;;;;;;;1486738;39;20419;-85
2021/06/05 05:51:23;;;;;;;3.50;3.20;;;;;;;;;;1491602;39;20425;-88
2021/06/05 05:52:25;;;;;;;3.85;3.55;;;;;;;;;;1495966;39;20403;-87
2021/06/05 05:53:26;;;;;;;5.95;2.95;;;;;;;;;;1491182;39;20404;-86
2021/06/05 05:54:28;;;;;;;3.20;2.90;;;;;;;;;;1496073;39;20414;-88
2021/06/05 05:55:30;;;;;;;5.85;3.33;;;;;;;;;;1490783;39;20780;-87
2021/06/05 05:56:34;;;;;;;5.40;3.17;;;;;;;;;;1491016;39;20474;-89
2021/06/05 05:57:36;;;;;;;3.55;2.90;;;;;;;;;;1489417;39;20460;-86
2021/06/05 05:58:41;;;;;;;3.75;3.47;;;;;;;;;;1494890;39;20430;-88
2021/06/05 05:59:43;;;;;;;3.20;3.00;;;;;;;;;;1498737;39;20707;-88
2021/06/05 06:00:47;;;;;;;5.00;3.15;;;;;;;;;;1498513;39;20401;-89
2021/06/05 06:01:48;;;;;;;3.40;3.20;;;;;;;;;;1500029;39;20398;-89
2021/06/05 06:02:50;;;;;;;4.80;3.47;;;;;;;;;;1495723;39;20408;-86
2021/06/05 06:03:55;;;;;;;3.78;3.53;;;;;;;;;;1495114;39;20404;-85
2021/06/05 06:04:57;;;;;;;4.20;3.50;;;;;;;;;;1496053;39;20501;-88
2021/06/05 06:05:59;;;;;;;4.20;3.20;;;;;;;;;;1490735;39;20495;-88
2021/06/05 06:07:00;;;;;;;3.50;3.20;;;;;;;;;;1483324;40;20474;-87
2021/06/05 06:08:05;;;;;;;3.95;3.35;;;;;;;;;;1483534;39;20412;-86
2021/06/05 06:09:07;;;;;;;3.72;3.42;;;;;;;;;;1492024;39;20425;-87
2021/06/05 06:10:13;;;;;;;4.10;3.70;;;;;;;;;;1495847;39;20451;-87
2021/06/05 06:11:16;;;;;;;3.88;3.67;;;;;;;;;;1491778;39;20393;-84
2021/06/05 06:12:17;;;;;;;3.72;3.42;;;;;;;;;;1491276;39;20816;-85
2021/06/05 06:13:20;;;;;;;4.30;3.85;;;;;;;;;;1485047;40;20399;-85
2021/06/05 06:14:23;;;;;;;4.72;4.28;;;;;;;;;;1485808;39;20673;-86
2021/06/05 06:15:27;;;;;;;4.55;4.20;;;;;;;;;;1491981;39;20422;-87
2021/06/05 06:16:30;;;;;;;5.93;4.47;;;;;;;;;;1487548;39;20520;-87
2021/06/05 06:17:32;;;;;;;4.15;3.85;;;;;;;;;;1493445;39;20421;-87
2021/06/05 06:18:38;;;;;;;4.13;3.83;;;;;;;;;;1495802;39;20796;-86
2021/06/05 06:19:39;;;;;;;4.95;4.55;;;;;;;;;;1491937;39;20396;-88